Time;durP1;ratioP1;P1;durP2;ratioP2;P2;SDS_P1;SDS_P2;PMS_P1;PMS_P2;Temp;Humidity;BMP_temperature;BMP_pressure;BME280_temperature;BME280_humidity;BME280_pressure;Samples;Min_cycle;Max_cycle;Signal;HPM_P1;HPM_P2
2024/01/12 00:02:01;;;;;;;31.80;16.23;;;-2.50;99.90;;;;;;4145699;28;20264;-61
2024/01/12 00:04:02;;;;;;;35.77;17.23;;;-2.50;99.90;;;;;;4145369;28;20315;-58
2024/01/12 00:06:05;;;;;;;32.40;15.63;;;-2.60;99.90;;;;;;4145689;28;20271;-62
2024/01/12 00:08:06;;;;;;;33.27;16.47;;;-2.60;99.90;;;;;;4145115;28;20739;-61
2024/01/12 00:10:10;;;;;;;32.97;15.40;;;-2.60;99.90;;;;;;4145783;28;20271;-62
2024/01/12 00:12:11;;;;;;;33.87;16.57;;;-2.60;99.90;;;;;;4144746;28;20326;-61
2024/01/12 00:14:16;;;;;;;28.43;15.27;;;-2.60;99.90;;;;;;4146245;28;20354;-62
2024/01/12 00:16:20;;;;;;;33.40;16.27;;;-2.60;99.90;;;;;;4144954;28;20276;-61
2024/01/12 00:18:21;;;;;;;28.50;15.03;;;-2.60;99.90;;;;;;4145701;28;20349;-61
2024/01/12 00:20:22;;;;;;;34.67;15.27;;;-2.60;99.90;;;;;;4145071;28;20283;-60
2024/01/12 00:22:24;;;;;;;33.33;16.03;;;-2.60;99.90;;;;;;4145806;28;20276;-59
2024/01/12 00:24:25;;;;;;;33.17;16.17;;;-2.50;99.90;;;;;;4145117;28;20774;-62
2024/01/12 00:26:26;;;;;;;30.87;15.93;;;-2.60;99.90;;;;;;4145107;28;20267;-62
2024/01/12 00:28:28;;;;;;;35.33;16.40;;;-2.60;99.90;;;;;;4144803;28;20772;-61
2024/01/12 00:30:29;;;;;;;32.93;16.00;;;-2.60;99.90;;;;;;4145447;28;20291;-62
2024/01/12 00:32:30;;;;;;;29.33;15.77;;;-2.60;99.90;;;;;;4145029;28;20283;-62
2024/01/12 00:34:32;;;;;;;33.27;15.80;;;-2.60;99.90;;;;;;4144926;28;20260;-62
2024/01/12 00:36:33;;;;;;;32.97;16.13;;;-2.60;99.90;;;;;;4143715;28;20940;-61
2024/01/12 00:38:34;;;;;;;33.63;15.37;;;-2.60;99.90;;;;;;4144652;28;20395;-61
2024/01/12 00:40:35;;;;;;;30.63;15.43;;;-2.50;99.90;;;;;;4145184;28;20318;-61
2024/01/12 00:42:36;;;;;;;32.97;15.80;;;-2.50;99.90;;;;;;4144640;28;20275;-62
2024/01/12 00:44:37;;;;;;;35.77;16.07;;;-2.50;99.90;;;;;;4145985;28;20267;-62
2024/01/12 00:46:39;;;;;;;34.30;16.37;;;-2.40;99.90;;;;;;4144208;28;20271;-62
2024/01/12 00:48:40;;;;;;;33.63;16.43;;;-2.50;99.90;;;;;;4145235;28;20267;-62
2024/01/12 00:50:43;;;;;;;35.23;16.70;;;-2.50;99.90;;;;;;4144470;28;20666;-62
2024/01/12 00:52:45;;;;;;;33.43;17.13;;;-2.50;99.90;;;;;;4144918;28;20345;-62
2024/01/12 00:54:46;;;;;;;31.50;15.13;;;-2.50;99.90;;;;;;4144569;28;20322;-62
2024/01/12 00:56:47;;;;;;;34.00;16.77;;;-2.50;99.90;;;;;;4144691;28;20255;-62
2024/01/12 00:58:48;;;;;;;36.20;16.97;;;-2.50;99.90;;;;;;4144550;28;20434;-61
2024/01/12 01:00:49;;;;;;;35.53;17.13;;;-2.60;99.90;;;;;;4144817;28;20267;-61
2024/01/12 01:02:52;;;;;;;35.73;16.37;;;-2.60;99.90;;;;;;4144674;28;20314;-61
2024/01/12 01:04:54;;;;;;;33.70;17.17;;;-2.60;99.90;;;;;;4143626;28;21082;-62
2024/01/12 01:06:55;;;;;;;38.27;17.37;;;-2.60;99.90;;;;;;4144924;28;20334;-62
2024/01/12 01:08:57;;;;;;;39.33;17.97;;;-2.60;99.90;;;;;;4144504;28;20271;-62
2024/01/12 01:10:58;;;;;;;33.80;17.07;;;-2.60;99.90;;;;;;4144669;28;20264;-62
2024/01/12 01:12:59;;;;;;;35.03;17.23;;;-2.60;99.90;;;;;;4144290;28;20295;-59
2024/01/12 01:15:01;;;;;;;38.27;18.73;;;-2.60;99.90;;;;;;4155005;28;20317;-61
2024/01/12 01:17:02;;;;;;;42.57;20.33;;;-2.60;99.90;;;;;;4160416;28;20274;-61
2024/01/12 01:19:03;;;;;;;41.20;19.17;;;-2.50;99.90;;;;;;4161149;28;20327;-62
2024/01/12 01:21:04;;;;;;;39.87;18.27;;;-2.60;99.90;;;;;;4144430;28;20331;-61
2024/01/12 01:23:05;;;;;;;45.73;19.90;;;-2.50;99.90;;;;;;4144662;28;20271;-60
2024/01/12 01:25:07;;;;;;;43.37;19.27;;;-2.60;99.90;;;;;;4144260;28;20267;-61
2024/01/12 01:27:08;;;;;;;41.10;19.03;;;-2.60;99.90;;;;;;4144088;28;20321;-60
2024/01/12 01:29:09;;;;;;;41.53;19.60;;;-2.60;99.90;;;;;;4144184;28;20302;-63
2024/01/12 01:31:10;;;;;;;41.87;18.93;;;-2.60;99.90;;;;;;4144231;28;20279;-62
2024/01/12 01:33:12;;;;;;;41.40;19.07;;;-2.60;99.90;;;;;;4144108;28;20801;-62
2024/01/12 01:35:13;;;;;;;37.77;18.23;;;-2.60;99.90;;;;;;4144326;28;20683;-61
2024/01/12 01:37:14;;;;;;;42.87;19.67;;;-2.70;99.90;;;;;;4144240;28;20291;-63
2024/01/12 01:39:15;;;;;;;42.17;18.67;;;-2.70;99.90;;;;;;4144062;28;20810;-62
2024/01/12 01:41:17;;;;;;;44.87;20.60;;;-2.80;99.90;;;;;;4144425;28;20283;-63
2024/01/12 01:43:18;;;;;;;43.80;20.43;;;-2.90;99.90;;;;;;4144295;28;20271;-62
2024/01/12 01:45:19;;;;;;;45.47;20.03;;;-2.90;99.90;;;;;;4144433;28;20660;-61
2024/01/12 01:47:20;;;;;;;44.70;18.87;;;-2.90;99.90;;;;;;4143623;28;20275;-62
2024/01/12 01:49:22;;;;;;;44.37;20.40;;;-2.90;99.90;;;;;;4144011;28;20263;-62
2024/01/12 01:51:24;;;;;;;39.80;18.80;;;-2.80;99.90;;;;;;4143603;28;20255;-61
2024/01/12 01:53:25;;;;;;;42.40;18.63;;;-2.90;99.90;;;;;;4144331;28;20296;-61
2024/01/12 01:55:29;;;;;;;40.17;18.00;;;-2.90;99.90;;;;;;4143639;28;20275;-62
2024/01/12 01:57:32;;;;;;;43.10;20.20;;;-2.90;99.90;;;;;;4143723;28;20263;-63
2024/01/12 01:59:35;;;;;;;46.77;19.93;;;-2.90;99.90;;;;;;4143847;28;20271;-62
2024/01/12 02:01:36;;;;;;;43.40;20.57;;;-2.90;99.90;;;;;;4143873;28;20279;-62
2024/01/12 02:03:39;;;;;;;42.57;19.30;;;-2.90;99.90;;;;;;4143857;28;20771;-62
2024/01/12 02:05:43;;;;;;;46.60;22.30;;;-2.90;99.90;;;;;;4143867;28;20267;-62
2024/01/12 02:07:44;;;;;;;41.77;20.47;;;-2.90;99.90;;;;;;4143664;28;20302;-62
2024/01/12 02:09:46;;;;;;;47.33;19.90;;;-2.90;99.90;;;;;;4143801;28;20278;-62
2024/01/12 02:11:47;;;;;;;45.30;20.17;;;-2.90;99.90;;;;;;4143776;28;20298;-61
2024/01/12 02:13:49;;;;;;;46.20;20.33;;;-3.00;99.90;;;;;;4143797;28;20703;-61
2024/01/12 02:15:50;;;;;;;48.27;19.83;;;-3.00;99.90;;;;;;4143940;28;20314;-63
2024/01/12 02:17:51;;;;;;;45.50;20.93;;;-3.00;99.90;;;;;;4143469;28;20386;-62
2024/01/12 02:19:59;;;;;;;44.27;19.93;;;-3.00;99.90;;;;;;4144086;28;20267;-62
2024/01/12 02:22:00;;;;;;;45.87;19.80;;;-3.00;99.90;;;;;;4143614;28;20268;-62
2024/01/12 02:24:02;;;;;;;42.53;18.40;;;-3.10;99.90;;;;;;4144258;28;20710;-62
2024/01/12 02:26:03;;;;;;;44.30;19.23;;;-3.10;99.90;;;;;;4143520;28;20275;-62
2024/01/12 02:28:04;;;;;;;41.13;18.40;;;-3.10;99.90;;;;;;4143896;28;20319;-62
2024/01/12 02:30:06;;;;;;;45.43;19.50;;;-3.10;99.90;;;;;;4143447;28;20337;-61
2024/01/12 02:32:07;;;;;;;44.37;21.70;;;-3.10;99.90;;;;;;4143187;28;20279;-62
2024/01/12 02:34:08;;;;;;;42.53;19.83;;;-3.10;99.90;;;;;;4143253;28;20349;-63
2024/01/12 02:36:10;;;;;;;46.47;19.27;;;-3.10;99.90;;;;;;4143702;28;20264;-63
2024/01/12 02:38:11;;;;;;;45.10;20.10;;;-3.10;99.90;;;;;;4143600;28;20325;-62
2024/01/12 02:40:12;;;;;;;46.77;19.97;;;-3.10;99.90;;;;;;4143755;28;20271;-62
2024/01/12 02:42:13;;;;;;;43.30;19.53;;;-3.10;99.90;;;;;;4143725;28;20287;-62
2024/01/12 02:44:14;;;;;;;49.23;20.40;;;-3.10;99.90;;;;;;4143985;28;20255;-62
2024/01/12 02:46:16;;;;;;;44.53;19.93;;;-3.00;99.90;;;;;;4143729;28;20267;-60
2024/01/12 02:48:17;;;;;;;43.87;19.37;;;-3.00;99.90;;;;;;4143379;28;20252;-60
2024/01/12 02:50:18;;;;;;;43.33;21.07;;;-3.00;99.90;;;;;;4143843;28;20247;-63
2024/01/12 02:52:19;;;;;;;46.93;21.07;;;-3.00;99.90;;;;;;4143332;28;20659;-62
2024/01/12 02:54:21;;;;;;;46.17;20.07;;;-3.00;99.90;;;;;;4143822;28;20345;-62
2024/01/12 02:56:22;;;;;;;47.87;19.97;;;-3.00;99.90;;;;;;4142962;28;20325;-62
2024/01/12 02:58:23;;;;;;;53.80;19.20;;;-3.00;99.90;;;;;;4143746;28;20279;-62
2024/01/12 03:00:24;;;;;;;44.40;19.47;;;-3.00;99.90;;;;;;4141383;28;20276;-60
2024/01/12 03:02:26;;;;;;;43.13;19.77;;;-2.90;99.90;;;;;;4146041;28;21096;-61
2024/01/12 03:04:27;;;;;;;45.83;20.20;;;-2.90;99.90;;;;;;4146330;28;20817;-61
2024/01/12 03:06:28;;;;;;;39.43;18.13;;;-2.90;99.90;;;;;;4146397;28;20271;-63
2024/01/12 03:08:29;;;;;;;43.77;19.53;;;-2.90;99.90;;;;;;4146594;28;20268;-63
2024/01/12 03:10:30;;;;;;;42.17;19.07;;;-2.90;99.90;;;;;;4146519;28;20267;-60
2024/01/12 03:12:31;;;;;;;42.40;18.87;;;-2.90;99.90;;;;;;4146327;28;20267;-62
2024/01/12 03:14:32;;;;;;;41.80;18.83;;;-2.90;99.90;;;;;;4146635;28;20295;-62
2024/01/12 03:16:34;;;;;;;40.30;17.87;;;-2.90;99.90;;;;;;4146350;28;20271;-62
2024/01/12 03:18:35;;;;;;;36.23;17.37;;;-2.90;99.90;;;;;;4144795;28;20756;-63
2024/01/12 03:20:36;;;;;;;38.40;17.70;;;-2.90;99.90;;;;;;4146469;28;20421;-61
2024/01/12 03:22:37;;;;;;;35.87;16.80;;;-2.90;99.90;;;;;;4145878;28;20279;-62
2024/01/12 03:24:39;;;;;;;42.73;18.20;;;-2.90;99.90;;;;;;4146357;28;20334;-63
2024/01/12 03:26:40;;;;;;;38.50;18.23;;;-2.90;99.90;;;;;;4145412;28;20321;-63
2024/01/12 03:28:41;;;;;;;36.80;17.97;;;-2.90;99.90;;;;;;4146096;28;22524;-61
2024/01/12 03:30:42;;;;;;;38.97;17.47;;;-2.80;99.90;;;;;;4145634;28;20849;-63
2024/01/12 03:32:43;;;;;;;35.87;17.00;;;-2.90;99.90;;;;;;4146381;28;20283;-63
2024/01/12 03:34:45;;;;;;;38.67;17.53;;;-2.80;99.90;;;;;;4145789;28;20672;-61
2024/01/12 03:36:46;;;;;;;43.33;18.13;;;-2.90;99.90;;;;;;4144742;28;20334;-63
2024/01/12 03:38:48;;;;;;;41.47;17.10;;;-2.90;99.90;;;;;;4146175;28;20271;-60
2024/01/12 03:40:49;;;;;;;34.47;17.20;;;-2.90;99.90;;;;;;4145928;28;20644;-61
2024/01/12 03:42:50;;;;;;;41.87;18.57;;;-2.80;99.90;;;;;;4145663;28;20271;-61
2024/01/12 03:44:51;;;;;;;43.30;19.30;;;-2.80;99.90;;;;;;4146207;28;20326;-62
2024/01/12 03:46:52;;;;;;;33.80;16.50;;;-2.80;99.90;;;;;;4145838;28;20345;-61
2024/01/12 03:48:55;;;;;;;41.57;18.73;;;-2.80;99.90;;;;;;4145836;28;20267;-62
2024/01/12 03:50:56;;;;;;;46.90;18.47;;;-2.80;99.90;;;;;;4145918;28;20835;-61
2024/01/12 03:52:57;;;;;;;46.23;19.90;;;-2.80;99.90;;;;;;4145259;28;20682;-61
2024/01/12 03:54:59;;;;;;;38.97;17.00;;;-2.80;99.90;;;;;;4146133;28;20287;-62
2024/01/12 03:57:00;;;;;;;38.50;17.87;;;-2.90;99.90;;;;;;4145219;28;20275;-61
2024/01/12 03:59:01;;;;;;;42.60;18.47;;;-2.90;99.90;;;;;;4145705;28;20601;-60
2024/01/12 04:01:06;;;;;;;37.83;18.40;;;-2.90;99.90;;;;;;4145423;28;20325;-61
2024/01/12 04:03:07;;;;;;;39.13;19.03;;;-3.00;99.90;;;;;;4145494;28;20330;-62
2024/01/12 04:05:09;;;;;;;38.77;16.27;;;-3.00;99.90;;;;;;4145584;28;20268;-62
2024/01/12 04:07:11;;;;;;;41.50;18.50;;;-3.00;99.90;;;;;;4145640;28;20618;-61
2024/01/12 04:09:15;;;;;;;44.67;17.70;;;-3.00;99.90;;;;;;4145256;28;20329;-61
2024/01/12 04:11:22;;;;;;;43.17;18.40;;;-3.00;99.90;;;;;;4145311;28;20608;-62
2024/01/12 04:13:23;;;;;;;39.37;17.67;;;-3.10;99.90;;;;;;4144828;28;20837;-62
2024/01/12 04:15:25;;;;;;;45.80;19.70;;;-3.10;99.90;;;;;;4145665;28;20276;-61
2024/01/12 04:17:26;;;;;;;42.03;18.20;;;-3.10;99.90;;;;;;4145529;28;20279;-61
2024/01/12 04:19:27;;;;;;;44.00;19.77;;;-3.10;99.90;;;;;;4145005;28;20329;-61
2024/01/12 04:21:28;;;;;;;39.97;17.97;;;-3.10;99.90;;;;;;4145410;28;20330;-62
2024/01/12 04:23:29;;;;;;;42.83;19.03;;;-3.10;99.90;;;;;;4144986;28;20268;-62
2024/01/12 04:25:31;;;;;;;40.97;17.83;;;-3.10;99.90;;;;;;4145483;28;21047;-62
2024/01/12 04:27:32;;;;;;;39.00;17.53;;;-3.10;99.90;;;;;;4144788;28;20283;-62
2024/01/12 04:29:34;;;;;;;39.23;18.00;;;-3.10;99.90;;;;;;4145532;28;20283;-62
2024/01/12 04:31:41;;;;;;;41.97;18.23;;;-3.10;99.90;;;;;;4144606;28;20353;-61
2024/01/12 04:33:42;;;;;;;38.77;17.97;;;-3.00;99.90;;;;;;4145555;28;20307;-62
2024/01/12 04:35:44;;;;;;;42.60;18.00;;;-3.00;99.90;;;;;;4144538;28;20260;-62
2024/01/12 04:37:45;;;;;;;40.70;17.37;;;-3.00;99.90;;;;;;4144770;28;20795;-61
2024/01/12 04:39:46;;;;;;;37.60;17.33;;;-3.10;99.90;;;;;;4144417;28;20353;-60
2024/01/12 04:41:47;;;;;;;37.93;17.80;;;-3.00;99.90;;;;;;4144837;28;20263;-62
2024/01/12 04:43:48;;;;;;;35.87;16.03;;;-3.00;99.90;;;;;;4145155;28;20267;-61
2024/01/12 04:45:50;;;;;;;42.37;18.20;;;-3.00;99.90;;;;;;4144595;28;20322;-61
2024/01/12 04:47:52;;;;;;;42.03;19.00;;;-3.10;99.90;;;;;;4144796;28;20643;-61
2024/01/12 04:49:53;;;;;;;36.53;17.10;;;-3.00;99.90;;;;;;4144427;28;20271;-61
2024/01/12 04:51:55;;;;;;;35.93;17.97;;;-3.00;99.90;;;;;;4144621;28;20255;-62
2024/01/12 04:53:56;;;;;;;37.40;17.60;;;-3.10;99.90;;;;;;4144280;28;20402;-60
2024/01/12 04:55:57;;;;;;;40.33;18.00;;;-3.00;99.90;;;;;;4144310;28;21808;-62
2024/01/12 04:57:59;;;;;;;41.43;18.43;;;-3.10;99.90;;;;;;4144032;28;20268;-62
2024/01/12 05:00:01;;;;;;;38.30;18.10;;;-3.00;99.90;;;;;;4144825;28;20268;-62
2024/01/12 05:02:02;;;;;;;41.17;18.20;;;-3.10;99.90;;;;;;4143931;28;20341;-61
2024/01/12 05:04:03;;;;;;;40.00;17.33;;;-3.00;99.90;;;;;;4144975;28;20283;-62
2024/01/12 05:06:04;;;;;;;38.77;17.10;;;-3.00;99.90;;;;;;4143593;28;20727;-62
2024/01/12 05:08:06;;;;;;;42.03;18.20;;;-3.00;99.90;;;;;;4144497;28;20671;-62
2024/01/12 05:10:07;;;;;;;38.00;16.87;;;-3.00;99.90;;;;;;4144036;28;20279;-63
2024/01/12 05:12:08;;;;;;;34.87;17.53;;;-3.00;99.90;;;;;;4144142;28;20317;-62
2024/01/12 05:14:10;;;;;;;30.40;15.67;;;-3.00;99.90;;;;;;4144359;28;20817;-63
2024/01/12 05:16:11;;;;;;;41.03;18.37;;;-3.00;99.90;;;;;;4143789;28;20272;-61
2024/01/12 05:18:12;;;;;;;38.70;17.70;;;-3.00;99.90;;;;;;4144393;28;20256;-61
2024/01/12 05:20:13;;;;;;;37.43;16.90;;;-3.00;99.90;;;;;;4143682;28;20346;-61
2024/01/12 05:22:15;;;;;;;36.73;16.67;;;-3.00;99.90;;;;;;4142710;28;20341;-63
2024/01/12 05:24:16;;;;;;;39.03;17.17;;;-3.00;99.90;;;;;;4143074;28;20667;-61
2024/01/12 05:26:17;;;;;;;39.50;17.17;;;-3.00;99.90;;;;;;4143725;28;20279;-62
2024/01/12 05:28:18;;;;;;;46.43;18.90;;;-3.00;99.90;;;;;;4143611;28;20345;-62
2024/01/12 05:30:19;;;;;;;40.20;17.87;;;-3.00;99.90;;;;;;4143696;28;20651;-60
2024/01/12 05:32:21;;;;;;;40.60;17.77;;;-3.10;99.90;;;;;;4143217;28;20271;-61
2024/01/12 05:34:22;;;;;;;47.50;20.07;;;-3.10;99.90;;;;;;4140804;28;20743;-61
2024/01/12 05:36:23;;;;;;;39.20;18.80;;;-3.00;99.90;;;;;;4142899;28;20605;-61
2024/01/12 05:38:24;;;;;;;40.07;17.87;;;-3.00;99.90;;;;;;4143598;28;20313;-61
2024/01/12 05:40:26;;;;;;;41.13;18.97;;;-3.00;99.90;;;;;;4139416;28;20271;-62
2024/01/12 05:42:27;;;;;;;40.77;18.73;;;-3.00;99.90;;;;;;4143370;28;20275;-62
2024/01/12 05:44:29;;;;;;;39.07;18.03;;;-3.00;99.90;;;;;;4144193;28;20333;-61
2024/01/12 05:46:30;;;;;;;33.90;16.10;;;-3.00;99.90;;;;;;4143931;28;20341;-62
2024/01/12 05:48:31;;;;;;;39.40;18.47;;;-3.00;99.90;;;;;;4143673;28;20279;-61
2024/01/12 05:50:33;;;;;;;36.07;16.87;;;-3.00;99.90;;;;;;4143624;28;20283;-61
2024/01/12 05:52:34;;;;;;;37.77;18.17;;;-3.00;99.90;;;;;;4143861;28;20757;-61
2024/01/12 05:54:35;;;;;;;35.97;17.07;;;-3.00;99.90;;;;;;4143238;28;20325;-61
2024/01/12 05:56:36;;;;;;;39.33;17.20;;;-3.00;99.90;;;;;;4143211;28;20683;-61
2024/01/12 05:58:39;;;;;;;43.13;19.37;;;-3.00;99.90;;;;;;4143380;28;20256;-62
2024/01/12 06:00:40;;;;;;;42.73;18.77;;;-3.00;99.90;;;;;;4143479;28;20879;-59
2024/01/12 06:02:42;;;;;;;38.03;18.03;;;-3.00;99.90;;;;;;4142803;28;20659;-60
2024/01/12 06:04:43;;;;;;;40.37;17.57;;;-3.00;99.90;;;;;;4144224;28;20291;-61
2024/01/12 06:06:44;;;;;;;41.13;16.47;;;-3.00;99.90;;;;;;4143269;28;20734;-60
2024/01/12 06:08:45;;;;;;;40.60;17.77;;;-3.00;99.90;;;;;;4144208;28;20338;-61
2024/01/12 06:10:47;;;;;;;39.53;17.40;;;-3.00;99.90;;;;;;4143215;28;20321;-60
2024/01/12 06:12:48;;;;;;;41.63;19.40;;;-3.10;99.90;;;;;;4143925;28;20268;-61
2024/01/12 06:14:49;;;;;;;44.83;18.57;;;-3.10;99.90;;;;;;4143719;28;20775;-60
2024/01/12 06:16:52;;;;;;;41.20;16.40;;;-3.10;99.90;;;;;;4143828;28;20317;-62
2024/01/12 06:18:53;;;;;;;40.07;17.40;;;-3.00;99.90;;;;;;4142235;28;20272;-61
2024/01/12 06:20:54;;;;;;;39.27;17.73;;;-3.10;99.90;;;;;;4143763;28;20284;-61
2024/01/12 06:22:56;;;;;;;43.83;17.47;;;-3.10;99.90;;;;;;4143800;28;20318;-62
2024/01/12 06:24:57;;;;;;;37.17;17.90;;;-3.10;99.90;;;;;;4143795;28;20279;-61
2024/01/12 06:26:58;;;;;;;40.37;17.03;;;-3.00;99.90;;;;;;4143190;28;20817;-60
2024/01/12 06:28:59;;;;;;;36.87;17.93;;;-3.00;99.90;;;;;;4143419;28;20279;-61
2024/01/12 06:31:00;;;;;;;44.63;19.53;;;-3.00;99.90;;;;;;4143947;28;20310;-61
2024/01/12 06:33:02;;;;;;;44.40;18.23;;;-3.00;99.90;;;;;;4143363;28;20268;-62
2024/01/12 06:35:04;;;;;;;35.53;16.93;;;-3.00;99.90;;;;;;4143967;28;20746;-61
2024/01/12 06:37:05;;;;;;;46.63;19.50;;;-3.00;99.90;;;;;;4146184;28;20256;-61
2024/01/12 06:39:08;;;;;;;40.77;20.20;;;-3.00;99.90;;;;;;4147046;28;20279;-61
2024/01/12 06:41:09;;;;;;;39.10;18.70;;;-3.10;99.90;;;;;;4146336;28;20344;-61
2024/01/12 06:43:10;;;;;;;40.90;18.33;;;-3.00;99.90;;;;;;4146915;28;20386;-61
2024/01/12 06:45:12;;;;;;;40.57;17.73;;;-3.00;99.90;;;;;;4146921;28;20345;-60
2024/01/12 06:47:13;;;;;;;41.93;17.33;;;-3.00;99.90;;;;;;4146653;28;20313;-61
2024/01/12 06:49:14;;;;;;;36.87;16.33;;;-3.00;99.90;;;;;;4146588;28;20359;-60
2024/01/12 06:51:22;;;;;;;44.30;18.47;;;-3.00;99.90;;;;;;4146567;28;20330;-63
2024/01/12 06:53:24;;;;;;;38.93;19.27;;;-3.00;99.90;;;;;;4146292;28;20267;-61
2024/01/12 06:55:25;;;;;;;42.40;18.80;;;-3.00;99.90;;;;;;4146510;28;20307;-60
2024/01/12 06:57:26;;;;;;;44.87;20.27;;;-3.00;99.90;;;;;;4146375;28;20275;-60
2024/01/12 06:59:27;;;;;;;41.37;17.50;;;-3.00;99.90;;;;;;4146383;28;20271;-60
2024/01/12 07:01:28;;;;;;;39.67;17.43;;;-3.00;99.90;;;;;;4146509;28;20280;-60
2024/01/12 07:03:29;;;;;;;33.53;16.93;;;-3.00;99.90;;;;;;4145962;28;20275;-60
2024/01/12 07:05:31;;;;;;;42.47;18.33;;;-3.00;99.90;;;;;;4146440;28;20338;-62
2024/01/12 07:07:32;;;;;;;36.87;17.50;;;-3.00;99.90;;;;;;4145784;28;20264;-63
2024/01/12 07:09:33;;;;;;;38.47;17.37;;;-3.00;99.90;;;;;;4146648;28;20690;-64
2024/01/12 07:11:38;;;;;;;40.90;17.23;;;-3.00;99.90;;;;;;4144039;28;20314;-61
2024/01/12 07:13:39;;;;;;;46.83;19.70;;;-3.00;99.90;;;;;;4146583;28;20671;-62
2024/01/12 07:15:41;;;;;;;43.67;20.47;;;-3.00;99.90;;;;;;4146138;28;20629;-60
2024/01/12 07:17:43;;;;;;;46.00;22.60;;;-3.00;99.90;;;;;;4146538;28;20299;-62
2024/01/12 07:19:44;;;;;;;49.33;22.73;;;-3.00;99.90;;;;;;4146010;28;20283;-61
2024/01/12 07:21:45;;;;;;;46.27;20.93;;;-2.90;99.90;;;;;;4146388;28;20275;-62
2024/01/12 07:23:46;;;;;;;54.30;23.87;;;-2.90;99.90;;;;;;4145883;28;20271;-61
2024/01/12 07:25:48;;;;;;;49.27;23.00;;;-2.90;99.90;;;;;;4146090;28;20313;-58
2024/01/12 07:27:49;;;;;;;43.80;22.30;;;-2.80;99.90;;;;;;4145543;28;20728;-61
2024/01/12 07:29:50;;;;;;;38.30;19.17;;;-2.80;99.90;;;;;;4145736;28;20345;-61
2024/01/12 07:31:51;;;;;;;47.93;20.03;;;-2.80;99.90;;;;;;4145997;28;20612;-61
2024/01/12 07:33:53;;;;;;;43.83;17.73;;;-2.80;99.90;;;;;;4145538;28;20264;-62
2024/01/12 07:35:54;;;;;;;32.77;16.40;;;-2.80;99.90;;;;;;4146284;28;20744;-61
2024/01/12 07:37:55;;;;;;;36.70;16.03;;;-2.80;99.90;;;;;;4145731;28;20744;-61
2024/01/12 07:39:56;;;;;;;37.20;16.53;;;-2.90;99.90;;;;;;4146145;28;20301;-61
2024/01/12 07:41:57;;;;;;;41.40;16.63;;;-2.90;99.90;;;;;;4145139;28;20267;-61
2024/01/12 07:43:59;;;;;;;35.13;16.00;;;-2.90;99.90;;;;;;4146041;28;20279;-62
2024/01/12 07:46:00;;;;;;;39.87;19.27;;;-2.90;99.90;;;;;;4145947;28;20271;-61
2024/01/12 07:48:01;;;;;;;39.33;17.87;;;-2.90;99.90;;;;;;4144863;28;20267;-62
2024/01/12 07:50:03;;;;;;;34.37;15.53;;;-2.90;99.90;;;;;;4145479;28;20333;-64
2024/01/12 07:52:05;;;;;;;33.23;16.10;;;-2.90;99.90;;;;;;4145876;28;20264;-62
2024/01/12 07:54:06;;;;;;;39.93;17.73;;;-2.90;99.90;;;;;;4145458;28;20260;-63
2024/01/12 07:56:07;;;;;;;42.23;19.00;;;-2.90;99.90;;;;;;4145280;28;20271;-64
2024/01/12 07:58:08;;;;;;;38.77;16.20;;;-2.90;99.90;;;;;;4145284;28;20326;-64
2024/01/12 08:00:11;;;;;;;39.47;17.67;;;-3.00;99.90;;;;;;4145423;28;20333;-62
2024/01/12 08:02:12;;;;;;;41.87;17.17;;;-3.00;99.90;;;;;;4145491;28;20738;-63
2024/01/12 08:04:13;;;;;;;34.60;16.10;;;-2.90;99.90;;;;;;4145224;28;20271;-61
2024/01/12 08:06:15;;;;;;;41.97;17.67;;;-2.90;99.90;;;;;;4145606;28;20310;-61
2024/01/12 08:08:16;;;;;;;42.40;18.07;;;-2.90;99.90;;;;;;4143508;28;20830;-62
2024/01/12 08:10:18;;;;;;;34.67;15.20;;;-2.80;99.90;;;;;;4145659;28;20341;-61
2024/01/12 08:12:19;;;;;;;46.80;17.57;;;-2.80;99.90;;;;;;4144759;28;20345;-62
2024/01/12 08:14:20;;;;;;;37.97;17.13;;;-2.80;99.90;;;;;;4145458;28;20864;-62
2024/01/12 08:16:21;;;;;;;36.70;16.23;;;-2.80;99.90;;;;;;4145022;28;20279;-61
2024/01/12 08:18:23;;;;;;;39.20;15.93;;;-2.90;99.90;;;;;;4145249;28;20272;-62
2024/01/12 08:20:24;;;;;;;35.50;17.77;;;-2.90;99.90;;;;;;4144795;28;20354;-62
2024/01/12 08:22:25;;;;;;;38.13;16.37;;;-2.90;99.90;;;;;;4145115;28;20275;-62
2024/01/12 08:24:26;;;;;;;32.63;13.33;;;-2.90;99.90;;;;;;4144793;28;20314;-59
2024/01/12 08:26:27;;;;;;;34.40;15.23;;;-2.90;99.90;;;;;;4144817;28;20263;-60
2024/01/12 08:28:29;;;;;;;39.97;13.27;;;-3.00;99.90;;;;;;4144842;28;20337;-62
2024/01/12 08:30:30;;;;;;;35.50;14.50;;;-3.10;99.90;;;;;;4144702;28;20966;-63
2024/01/12 08:32:31;;;;;;;33.67;14.50;;;-3.10;99.90;;;;;;4145034;28;20332;-63
2024/01/12 08:34:32;;;;;;;35.10;14.50;;;-3.10;99.90;;;;;;4144593;28;20291;-63
2024/01/12 08:36:33;;;;;;;34.53;13.90;;;-3.10;99.90;;;;;;4145085;28;20670;-61
2024/01/12 08:38:34;;;;;;;42.23;16.10;;;-3.10;99.90;;;;;;4144713;28;20271;-60
2024/01/12 08:40:36;;;;;;;38.90;16.67;;;-3.10;99.90;;;;;;4145107;28;20263;-62
2024/01/12 08:42:40;;;;;;;37.27;14.57;;;-3.00;99.90;;;;;;4143937;28;20731;-62
2024/01/12 08:44:41;;;;;;;34.30;14.77;;;-3.00;99.90;;;;;;4145185;28;20252;-60
2024/01/12 08:46:42;;;;;;;38.87;15.87;;;-3.00;99.90;;;;;;4142821;28;20437;-61
2024/01/12 08:48:43;;;;;;;34.03;15.53;;;-3.10;99.90;;;;;;4144839;28;20287;-60
2024/01/12 08:50:44;;;;;;;43.83;16.53;;;-3.00;99.90;;;;;;4144296;28;20810;-60
2024/01/12 08:52:46;;;;;;;40.53;15.53;;;-3.00;99.90;;;;;;4144785;28;20648;-61
2024/01/12 08:54:48;;;;;;;33.73;14.13;;;-2.90;99.90;;;;;;4144377;28;20298;-60
2024/01/12 08:56:50;;;;;;;36.40;14.70;;;-2.90;99.90;;;;;;4144596;28;20813;-62
2024/01/12 08:58:51;;;;;;;39.93;15.30;;;-2.80;99.90;;;;;;4143535;28;20271;-61
2024/01/12 09:00:52;;;;;;;40.83;17.27;;;-2.80;99.90;;;;;;4144899;28;20342;-62
2024/01/12 09:02:54;;;;;;;38.90;15.50;;;-2.80;99.90;;;;;;4144802;28;20279;-61
2024/01/12 09:04:55;;;;;;;40.50;16.87;;;-2.70;99.90;;;;;;4144139;28;20275;-62
2024/01/12 09:06:56;;;;;;;41.27;17.60;;;-2.70;99.90;;;;;;4144536;28;20276;-60
2024/01/12 09:08:57;;;;;;;42.90;17.03;;;-2.70;99.90;;;;;;4144222;28;20275;-62
2024/01/12 09:11:01;;;;;;;40.27;17.53;;;-2.70;99.90;;;;;;4144152;28;20318;-62
2024/01/12 09:13:02;;;;;;;40.77;16.73;;;-2.70;99.90;;;;;;4143933;28;20311;-61
2024/01/12 09:15:07;;;;;;;35.10;15.27;;;-2.70;99.90;;;;;;4144838;28;20345;-61
2024/01/12 09:17:09;;;;;;;39.13;15.93;;;-2.70;99.90;;;;;;4143378;28;20334;-61
2024/01/12 09:19:10;;;;;;;37.23;15.13;;;-2.70;99.90;;;;;;4144263;28;20322;-60
2024/01/12 09:21:14;;;;;;;39.20;16.50;;;-2.70;99.90;;;;;;4143835;28;20349;-60
2024/01/12 09:23:16;;;;;;;40.50;16.83;;;-2.60;99.90;;;;;;4144468;28;20276;-61
2024/01/12 09:25:17;;;;;;;35.73;15.43;;;-2.50;99.90;;;;;;4143889;28;20398;-63
2024/01/12 09:27:18;;;;;;;34.63;14.07;;;-2.50;99.90;;;;;;4142505;28;20349;-63
2024/01/12 09:29:19;;;;;;;41.63;15.87;;;-2.60;99.90;;;;;;4143657;28;20310;-63
2024/01/12 09:31:20;;;;;;;39.33;16.07;;;-2.60;99.90;;;;;;4144011;28;20354;-61
2024/01/12 09:33:22;;;;;;;46.13;17.93;;;-2.50;99.90;;;;;;4143876;28;20255;-61
2024/01/12 09:35:23;;;;;;;40.93;15.90;;;-2.50;99.90;;;;;;4143918;28;20291;-61
2024/01/12 09:37:24;;;;;;;40.20;15.37;;;-2.50;99.90;;;;;;4143856;28;20264;-61
2024/01/12 09:39:26;;;;;;;47.23;17.57;;;-2.60;99.90;;;;;;4143963;28;20264;-62
2024/01/12 09:41:49;;;;;;;40.97;18.23;;;-2.60;99.90;;;;;;4144110;28;20357;-61
2024/01/12 09:43:54;;;;;;;42.60;17.83;;;-2.60;99.90;;;;;;4143767;28;20614;-62
2024/01/12 09:46:02;;;;;;;42.50;18.10;;;-2.60;99.90;;;;;;4144500;28;20283;-63
2024/01/12 09:48:04;;;;;;;44.93;18.27;;;-2.50;99.90;;;;;;4144024;28;20272;-63
2024/01/12 09:50:05;;;;;;;40.20;16.27;;;-2.50;99.90;;;;;;4144231;28;20275;-61
2024/01/12 09:52:07;;;;;;;52.70;17.33;;;-2.50;99.90;;;;;;4142947;28;20326;-62
2024/01/12 09:54:09;;;;;;;46.63;19.13;;;-2.40;99.90;;;;;;4144049;28;20267;-60
2024/01/12 09:56:10;;;;;;;39.83;16.03;;;-2.40;99.90;;;;;;4143171;28;20291;-63
2024/01/12 09:58:11;;;;;;;37.50;15.67;;;-2.30;99.90;;;;;;4143961;28;20299;-63
2024/01/12 10:00:17;;;;;;;40.77;16.33;;;-2.30;99.90;;;;;;4143143;28;20326;-63
2024/01/12 10:02:19;;;;;;;66.70;15.97;;;-2.30;99.90;;;;;;4144127;28;20317;-62
2024/01/12 10:04:20;;;;;;;35.17;14.47;;;-2.20;99.90;;;;;;4143062;28;20733;-62
2024/01/12 10:06:22;;;;;;;38.77;13.83;;;-2.20;99.90;;;;;;4143768;28;20342;-61
2024/01/12 10:08:33;;;;;;;41.90;18.60;;;-2.20;99.90;;;;;;4143262;28;20260;-65
2024/01/12 10:10:35;;;;;;;38.40;16.60;;;-2.30;99.90;;;;;;4143083;28;20318;-62
2024/01/12 10:12:36;;;;;;;44.10;18.40;;;-2.30;99.90;;;;;;4143178;28;20268;-61
2024/01/12 10:14:37;;;;;;;40.70;17.60;;;-2.40;99.90;;;;;;4143599;28;20271;-62
2024/01/12 10:16:39;;;;;;;46.33;19.43;;;-2.50;99.90;;;;;;4143802;28;20756;-60
2024/01/12 10:18:40;;;;;;;43.07;15.40;;;-2.50;99.90;;;;;;4143621;28;20329;-62